Time;durP1;ratioP1;P1;durP2;ratioP2;P2;SDS_P1;SDS_P2;PMS_P1;PMS_P2;Temp;Humidity;BMP_temperature;BMP_pressure;BME280_temperature;BME280_humidity;BME280_pressure;Samples;Min_cycle;Max_cycle;Signal;HPM_P1;HPM_P2
2023/02/04 00:01:06;;;;;;;4.18;1.35;;;;;;;8.74;58.32;101888.59;5027697;27;98705;-70
2023/02/04 00:03:32;;;;;;;3.83;1.17;;;;;;;8.62;58.91;101901.91;5027571;27;97694;-70
2023/02/04 00:05:59;;;;;;;5.70;1.52;;;;;;;8.58;59.22;101910.72;5024248;27;97824;-70
2023/02/04 00:08:26;;;;;;;3.35;1.20;;;;;;;8.57;59.58;101920.41;5026148;28;100485;-70
2023/02/04 00:10:53;;;;;;;4.38;1.80;;;;;;;8.37;60.19;101928.47;5024784;27;98985;-69
2023/02/04 00:13:19;;;;;;;4.55;1.85;;;;;;;8.52;60.18;101937.13;5027170;28;97143;-72
2023/02/04 00:15:45;;;;;;;2.25;1.30;;;;;;;8.53;59.11;101947.66;5024950;27;98735;-70
2023/02/04 00:18:12;;;;;;;1.20;0.93;;;;;;;8.78;58.34;101953.59;5029198;27;98099;-70
2023/02/04 00:20:38;;;;;;;5.55;1.73;;;;;;;8.46;59.14;101963.53;5027174;27;99034;-70
2023/02/04 00:23:05;;;;;;;3.33;1.30;;;;;;;8.29;59.67;101974.13;5027037;28;96681;-72
2023/02/04 00:25:33;;;;;;;2.38;0.98;;;;;;;8.36;59.74;101982.00;5024381;27;97364;-69
2023/02/04 00:27:59;;;;;;;4.60;1.13;;;;;;;8.57;58.63;101988.03;5026595;27;101981;-70
2023/02/04 00:30:28;;;;;;;3.10;1.17;;;;;;;8.55;58.17;101995.94;5033157;27;99391;-72
2023/02/04 00:32:55;;;;;;;3.10;1.92;;;;;;;8.69;58.25;101995.81;5029974;27;96775;-69
2023/02/04 00:35:22;;;;;;;3.15;1.15;;;;;;;8.51;59.34;102014.41;5027186;27;97004;-69
2023/02/04 00:37:49;;;;;;;4.10;0.98;;;;;;;8.41;59.55;102018.84;5028521;27;99297;-70
2023/02/04 00:40:15;;;;;;;2.22;1.15;;;;;;;8.39;59.74;102037.31;5026503;28;101830;-70
2023/02/04 00:42:43;;;;;;;1.65;0.63;;;;;;;8.70;59.18;102047.66;5029456;27;96809;-70
2023/02/04 00:45:11;;;;;;;2.05;1.00;;;;;;;8.57;58.71;102056.53;5024017;27;97220;-69
2023/02/04 00:47:38;;;;;;;2.15;0.85;;;;;;;8.32;59.05;102071.59;5026499;28;98971;-68
2023/02/04 00:50:05;;;;;;;2.20;0.88;;;;;;;8.16;58.93;102076.03;5031341;28;99392;-69
2023/02/04 00:52:31;;;;;;;1.35;0.63;;;;;;;8.12;58.37;102090.09;5029292;27;98416;-69
2023/02/04 00:54:58;;;;;;;2.13;0.63;;;;;;;8.00;58.65;102112.09;5025943;27;96875;-72
2023/02/04 00:57:24;;;;;;;2.17;0.90;;;;;;;8.15;58.36;102115.50;5025233;27;99295;-69
2023/02/04 00:59:52;;;;;;;2.63;0.93;;;;;;;8.02;57.89;102120.81;5020018;27;99090;-69
2023/02/04 01:02:19;;;;;;;3.08;0.73;;;;;;;8.01;58.54;102133.97;5027075;27;97638;-69
2023/02/04 01:04:45;;;;;;;2.28;0.90;;;;;;;8.01;58.58;102148.03;5026368;27;97686;-68
2023/02/04 01:07:11;;;;;;;3.00;0.90;;;;;;;8.07;58.19;102152.41;5022997;27;98835;-70
2023/02/04 01:09:38;;;;;;;4.13;1.25;;;;;;;8.09;57.91;102160.28;5020834;27;99253;-67
2023/02/04 01:12:05;;;;;;;2.60;0.88;;;;;;;8.09;57.31;102163.81;5031313;27;97154;-68
2023/02/04 01:14:31;;;;;;;2.33;1.00;;;;;;;7.99;57.85;102183.16;5025493;27;97184;-68
2023/02/04 01:16:59;;;;;;;6.43;1.00;;;;;;;7.66;57.98;102186.69;5020656;27;98957;-69
2023/02/04 01:19:25;;;;;;;3.05;1.15;;;;;;;7.96;57.61;102184.03;5022470;27;99434;-69
2023/02/04 01:21:52;;;;;;;1.55;0.90;;;;;;;7.73;57.82;102196.34;5024607;27;97057;-69
2023/02/04 01:24:18;;;;;;;2.65;0.90;;;;;;;7.86;57.70;102197.22;5023490;27;96781;-69
2023/02/04 01:26:44;;;;;;;2.80;0.93;;;;;;;8.08;57.62;102208.56;5023154;27;98849;-69
2023/02/04 01:29:11;;;;;;;1.65;0.70;;;;;;;8.13;56.81;102231.38;5029568;27;101849;-69
2023/02/04 01:31:37;;;;;;;0.90;0.90;;;;;;;7.92;57.27;102228.78;5025481;27;97772;-70
2023/02/04 01:34:06;;;;;;;1.42;0.80;;;;;;;7.98;57.71;102241.94;5022488;27;97800;-70
2023/02/04 01:36:32;;;;;;;2.72;0.93;;;;;;;8.14;57.31;102248.06;5021353;28;99376;-70
2023/02/04 01:38:59;;;;;;;4.95;1.15;;;;;;;8.23;57.25;102250.66;5022970;28;99280;-70
2023/02/04 01:41:26;;;;;;;1.33;0.70;;;;;;;8.01;57.04;102250.69;5028354;27;97160;-70
2023/02/04 01:43:53;;;;;;;2.60;0.88;;;;;;;7.63;58.51;102257.72;5030592;27;98404;-69
2023/02/04 01:46:20;;;;;;;2.00;0.93;;;;;;;7.80;58.37;102257.75;5026102;28;99041;-71
2023/02/04 01:48:46;;;;;;;2.67;0.77;;;;;;;7.82;57.72;102277.03;5015527;27;99327;-68
2023/02/04 01:51:16;;;;;;;1.00;0.60;;;;;;;7.59;57.90;102277.91;5022088;28;96701;-70
2023/02/04 01:53:43;;;;;;;3.10;0.80;;;;;;;7.75;57.96;102285.78;5024493;28;97818;-69
2023/02/04 01:56:17;;;;;;;4.97;1.08;;;;;;;7.50;58.29;102303.31;5020957;28;101820;-69
2023/02/04 01:58:43;;;;;;;2.75;0.73;;;;;;;7.66;58.31;102309.47;5024271;28;98834;-70
2023/02/04 02:01:31;;;;;;;4.55;0.90;;;;;;;7.73;57.68;102316.50;5028525;28;96944;-69
2023/02/04 02:03:57;;;;;;;1.70;0.75;;;;;;;7.48;58.16;102328.75;5024214;27;97914;-69
2023/02/04 02:06:26;;;;;;;3.58;0.73;;;;;;;7.65;57.57;102339.28;5025540;27;99559;-69
2023/02/04 02:08:52;;;;;;;1.17;0.60;;;;;;;7.54;57.85;102336.66;5026113;28;99321;-69
2023/02/04 02:11:19;;;;;;;1.33;0.40;;;;;;;7.48;57.52;102350.63;5027598;27;96994;-69
2023/02/04 02:13:45;;;;;;;3.17;0.68;;;;;;;7.51;57.59;102347.16;5025661;28;98558;-69
2023/02/04 02:16:12;;;;;;;3.50;1.25;;;;;;;7.60;57.46;102363.84;5023302;27;99051;-70
2023/02/04 02:18:38;;;;;;;2.17;0.50;;;;;;;7.60;57.31;102368.22;5021518;27;100332;-69
2023/02/04 02:21:08;;;;;;;0.73;0.60;;;;;;;7.69;57.00;102372.59;5032659;27;96906;-69
2023/02/04 02:23:47;;;;;;;3.22;1.00;;;;;;;7.70;56.58;102382.25;5027214;27;97741;-70
2023/02/04 02:26:15;;;;;;;5.13;0.70;;;;;;;7.49;56.59;102391.84;5027509;27;99360;-68
2023/02/04 02:28:41;;;;;;;1.90;0.57;;;;;;;7.71;56.58;102391.91;5024722;27;99354;-70
2023/02/04 02:31:08;;;;;;;1.30;0.70;;;;;;;7.74;56.47;102394.56;5032124;27;101210;-70
2023/02/04 02:33:35;;;;;;;4.03;0.77;;;;;;;7.58;56.71;102397.16;5027903;27;96939;-69
2023/02/04 02:36:02;;;;;;;3.55;0.88;;;;;;;7.57;56.78;102408.53;5028774;27;99961;-69
2023/02/04 02:38:28;;;;;;;1.40;0.70;;;;;;;7.65;57.10;102412.97;5020870;27;98866;-70
2023/02/04 02:40:56;;;;;;;1.33;0.60;;;;;;;7.80;56.00;102413.00;5029910;27;96923;-69
2023/02/04 02:43:25;;;;;;;3.83;0.73;;;;;;;7.70;56.70;102427.88;5031321;27;97150;-69
2023/02/04 02:45:53;;;;;;;5.53;0.85;;;;;;;7.88;56.57;102433.19;5035510;27;98968;-70
2023/02/04 02:48:19;;;;;;;5.05;0.80;;;;;;;7.94;56.04;102442.88;5030803;27;101098;-69
2023/02/04 02:50:49;;;;;;;4.63;1.23;;;;;;;7.70;56.63;102450.69;5027644;27;96766;-68
2023/02/04 02:53:18;;;;;;;3.20;0.88;;;;;;;7.80;56.38;102452.47;5030479;27;97589;-69
2023/02/04 02:55:45;;;;;;;3.35;0.80;;;;;;;7.91;56.17;102464.78;5020885;27;99167;-69
2023/02/04 02:58:16;;;;;;;7.32;1.15;;;;;;;7.74;56.69;102466.50;5029402;27;99194;-70
2023/02/04 03:00:44;;;;;;;3.83;1.05;;;;;;;7.70;56.55;102464.72;5034359;27;97528;-68
2023/02/04 03:03:16;;;;;;;5.85;0.68;;;;;;;7.75;56.55;102468.22;5023975;27;97824;-69
2023/02/04 03:05:46;;;;;;;3.88;0.80;;;;;;;7.84;56.57;102477.94;5029674;27;97664;-70
2023/02/04 03:08:15;;;;;;;4.10;0.98;;;;;;;7.74;56.47;102489.31;5023976;27;98800;-69
2023/02/04 03:10:42;;;;;;;2.95;0.77;;;;;;;7.80;56.68;102487.56;5031428;27;97590;-69
2023/02/04 03:13:09;;;;;;;3.15;1.00;;;;;;;7.74;56.57;102497.19;5028830;27;97146;-70
2023/02/04 03:15:38;;;;;;;3.03;0.52;;;;;;;7.49;56.77;102506.72;5028615;27;100092;-68
2023/02/04 03:18:05;;;;;;;2.22;0.73;;;;;;;7.56;56.83;102503.25;5021694;28;99388;-70
2023/02/04 03:20:32;;;;;;;3.03;0.73;;;;;;;7.68;56.56;102516.44;5024131;28;96808;-69
2023/02/04 03:22:59;;;;;;;4.95;0.98;;;;;;;7.57;56.75;102521.66;5023778;27;97414;-69
2023/02/04 03:25:27;;;;;;;2.80;0.60;;;;;;;7.52;56.80;102533.94;5027008;27;99676;-68
2023/02/04 03:27:54;;;;;;;3.55;0.70;;;;;;;7.54;56.66;102540.09;5020755;27;99121;-68
2023/02/04 03:30:22;;;;;;;2.08;0.75;;;;;;;7.45;56.48;102547.03;5028236;27;96852;-68
2023/02/04 03:32:50;;;;;;;3.10;0.70;;;;;;;7.48;56.92;102558.44;5027069;27;99179;-67
2023/02/04 03:35:17;;;;;;;1.60;0.60;;;;;;;7.49;56.75;102568.09;5025159;27;99460;-69
2023/02/04 03:37:43;;;;;;;7.55;0.70;;;;;;;7.60;56.55;102569.06;5029890;27;97749;-70
2023/02/04 03:40:11;;;;;;;2.25;0.77;;;;;;;7.60;56.47;102579.59;5023290;27;97021;-68
2023/02/04 03:42:38;;;;;;;1.85;0.70;;;;;;;7.65;56.29;102587.50;5017723;27;97030;-68
2023/02/04 03:45:05;;;;;;;3.75;0.90;;;;;;;7.62;56.67;102600.63;5023532;27;99026;-69
2023/02/04 03:47:31;;;;;;;7.28;0.90;;;;;;;7.63;56.96;102617.28;5022265;27;99353;-69
2023/02/04 03:49:59;;;;;;;4.60;0.80;;;;;;;7.56;56.75;102624.25;5026351;27;96952;-68
2023/02/04 03:52:25;;;;;;;6.03;1.05;;;;;;;7.44;56.76;102619.78;5025176;27;96800;-69
2023/02/04 03:54:51;;;;;;;5.25;0.82;;;;;;;7.38;57.13;102634.66;5028467;27;99447;-68
2023/02/04 03:57:18;;;;;;;3.28;0.55;;;;;;;7.61;56.83;102636.56;5023451;27;98861;-68
2023/02/04 03:59:44;;;;;;;3.67;0.70;;;;;;;7.48;57.16;102647.88;5025471;27;97724;-69
2023/02/04 04:02:11;;;;;;;3.97;0.57;;;;;;;7.41;56.91;102640.84;5028934;27;96930;-69
2023/02/04 04:04:37;;;;;;;5.90;0.82;;;;;;;7.54;56.98;102652.31;5023488;27;98777;-69
2023/02/04 04:07:05;;;;;;;2.05;1.10;;;;;;;7.50;57.25;102667.19;5024256;28;99155;-69
2023/02/04 04:09:32;;;;;;;2.83;0.70;;;;;;;7.61;56.64;102670.75;5022147;27;97403;-69
2023/02/04 04:11:58;;;;;;;3.17;0.70;;;;;;;7.52;56.75;102678.63;5030750;27;96887;-68
2023/02/04 04:14:25;;;;;;;6.32;0.98;;;;;;;7.42;57.16;102674.13;5020104;27;97866;-68
2023/02/04 04:16:51;;;;;;;3.55;0.82;;;;;;;7.52;57.08;102685.63;5022845;27;98766;-68
2023/02/04 04:19:17;;;;;;;1.65;0.50;;;;;;;7.48;57.18;102686.47;5029187;27;96817;-68
2023/02/04 04:21:44;;;;;;;3.60;0.80;;;;;;;7.53;56.92;102687.38;5021055;27;97263;-68
2023/02/04 04:24:11;;;;;;;4.88;0.70;;;;;;;7.53;56.85;102692.66;5022147;27;99484;-68
2023/02/04 04:26:38;;;;;;;5.38;0.70;;;;;;;7.50;57.29;102709.28;5029360;27;98854;-68
2023/02/04 04:29:04;;;;;;;4.68;1.05;;;;;;;7.52;56.88;102717.19;5023080;27;97649;-69
2023/02/04 04:31:31;;;;;;;7.55;0.70;;;;;;;7.53;56.58;102717.22;5023939;28;96838;-69
2023/02/04 04:33:57;;;;;;;3.15;0.80;;;;;;;7.60;56.89;102726.91;5020095;27;99057;-72
2023/02/04 04:36:24;;;;;;;3.38;1.27;;;;;;;7.41;57.26;102732.88;5024131;27;98905;-69
2023/02/04 04:38:50;;;;;;;4.18;0.88;;;;;;;7.61;56.98;102728.66;5021538;27;98972;-69
2023/02/04 04:41:18;;;;;;;2.17;0.95;;;;;;;7.60;56.78;102741.81;5024541;27;98414;-70
2023/02/04 04:43:44;;;;;;;2.20;0.77;;;;;;;7.53;57.09;102747.91;5024361;27;98604;-69
2023/02/04 04:46:10;;;;;;;6.57;1.23;;;;;;;7.61;56.84;102749.69;5026601;27;98771;-69
2023/02/04 04:48:37;;;;;;;3.15;0.93;;;;;;;7.40;57.21;102756.53;5017495;27;99150;-71
2023/02/04 04:51:04;;;;;;;3.17;0.70;;;;;;;7.36;57.69;102776.66;5021900;28;97256;-70
2023/02/04 04:53:31;;;;;;;2.42;0.80;;;;;;;7.29;57.81;102776.56;5021063;27;98866;-69
2023/02/04 04:55:57;;;;;;;8.73;2.67;;;;;;;7.10;58.25;102786.03;5021823;27;98786;-69
2023/02/04 04:58:25;;;;;;;4.50;1.10;;;;;;;7.08;58.58;102786.03;5026737;27;99832;-67
2023/02/04 05:00:52;;;;;;;4.25;1.00;;;;;;;7.16;58.44;102796.59;5024404;27;97537;-69
2023/02/04 05:03:18;;;;;;;5.68;0.70;;;;;;;7.19;58.26;102801.91;5019568;27;99536;-69
2023/02/04 05:05:44;;;;;;;5.70;0.90;;;;;;;7.13;58.14;102817.63;5023865;27;100210;-69
2023/02/04 05:08:15;;;;;;;6.57;0.95;;;;;;;6.86;58.85;102817.28;5031864;27;96798;-68
2023/02/04 05:10:42;;;;;;;3.55;1.33;;;;;;;7.05;59.11;102821.91;5024495;27;97001;-70
2023/02/04 05:13:09;;;;;;;4.43;0.80;;;;;;;7.01;59.08;102830.63;5028827;27;99293;-68
2023/02/04 05:15:37;;;;;;;3.35;0.90;;;;;;;7.07;58.95;102822.81;5027034;28;99316;-68
2023/02/04 05:18:04;;;;;;;6.18;0.88;;;;;;;7.04;58.97;102823.63;5029612;28;97209;-68
2023/02/04 05:20:30;;;;;;;2.13;1.27;;;;;;;7.03;58.95;102836.75;5020888;27;97636;-69
2023/02/04 05:22:59;;;;;;;6.93;1.20;;;;;;;7.13;58.62;102838.66;5017649;27;99284;-69
2023/02/04 05:25:26;;;;;;;7.30;0.82;;;;;;;7.08;58.95;102848.22;5023218;27;98153;-68
2023/02/04 05:27:53;;;;;;;7.20;1.38;;;;;;;7.05;58.58;102850.81;5023464;28;97497;-68
2023/02/04 05:30:19;;;;;;;4.22;1.40;;;;;;;7.10;58.82;102859.63;5018768;27;97590;-68
2023/02/04 05:32:47;;;;;;;3.10;1.10;;;;;;;7.05;58.94;102870.09;5027778;28;99148;-69
2023/02/04 05:35:14;;;;;;;4.55;1.67;;;;;;;7.05;58.60;102864.84;5031193;27;97799;-69
2023/02/04 05:37:40;;;;;;;2.22;1.05;;;;;;;6.85;59.35;102878.59;5026581;27;97176;-69
2023/02/04 05:40:07;;;;;;;3.45;0.70;;;;;;;7.15;58.50;102892.16;5024649;27;98661;-69
2023/02/04 05:42:34;;;;;;;3.72;1.20;;;;;;;7.13;58.37;102886.84;5024673;27;99166;-70
2023/02/04 05:45:00;;;;;;;6.75;3.35;;;;;;;7.16;58.64;102892.13;5031387;27;98838;-70
2023/02/04 05:47:26;;;;;;;5.45;1.80;;;;;;;7.01;58.58;102896.34;5024003;27;97335;-68
2023/02/04 05:49:54;;;;;;;6.75;1.42;;;;;;;6.71;59.45;102910.81;5030294;27;97917;-70
2023/02/04 05:52:21;;;;;;;5.47;1.17;;;;;;;6.57;59.87;102909.69;5027521;28;98998;-67
2023/02/04 05:54:47;;;;;;;5.57;0.90;;;;;;;6.73;59.74;102921.34;5028710;27;99218;-69
2023/02/04 05:57:14;;;;;;;8.82;1.50;;;;;;;6.77;59.40;102918.78;5023630;27;98881;-69
2023/02/04 05:59:40;;;;;;;3.05;1.10;;;;;;;6.77;59.52;102924.03;5022839;27;97733;-69
2023/02/04 06:02:06;;;;;;;2.40;0.80;;;;;;;6.88;59.10;102926.81;5028240;27;100726;-69
2023/02/04 06:04:33;;;;;;;3.67;1.10;;;;;;;6.72;59.72;102928.34;5026369;27;98825;-69
2023/02/04 06:07:02;;;;;;;6.50;1.00;;;;;;;6.54;60.26;102945.56;5027267;27;97338;-71
2023/02/04 06:09:28;;;;;;;5.32;1.40;;;;;;;6.64;60.13;102943.09;5024923;28;96768;-70
2023/02/04 06:11:56;;;;;;;4.88;1.08;;;;;;;6.76;59.64;102966.06;5024926;27;97542;-69
2023/02/04 06:14:22;;;;;;;3.88;1.20;;;;;;;6.66;59.65;102969.41;5022971;27;98277;-70
2023/02/04 06:16:49;;;;;;;6.90;2.15;;;;;;;6.80;59.44;102976.63;5031669;27;97829;-70
2023/02/04 06:19:15;;;;;;;19.85;4.65;;;;;;;6.90;59.31;102977.66;5026696;27;97931;-72
2023/02/04 06:21:41;;;;;;;5.57;2.38;;;;;;;6.67;59.66;102982.56;5022062;27;99456;-70
2023/02/04 06:24:10;;;;;;;5.90;1.48;;;;;;;6.83;59.36;102980.19;5029291;27;98805;-71
2023/02/04 06:26:36;;;;;;;7.35;2.05;;;;;;;6.79;59.37;102985.38;5026534;27;101010;-69
2023/02/04 06:29:02;;;;;;;6.50;1.40;;;;;;;6.83;59.29;102981.03;5032890;27;96928;-69
2023/02/04 06:31:29;;;;;;;3.33;1.27;;;;;;;6.33;60.72;102993.34;5030362;27;98132;-69
2023/02/04 06:33:55;;;;;;;4.45;2.35;;;;;;;6.58;60.24;102992.91;5028187;27;99042;-68
2023/02/04 06:36:21;;;;;;;3.60;1.05;;;;;;;6.73;60.09;102995.78;5029077;28;98698;-70
2023/02/04 06:38:48;;;;;;;3.95;1.50;;;;;;;6.50;59.79;103005.03;5028575;27;96881;-70
2023/02/04 06:41:15;;;;;;;7.97;3.50;;;;;;;6.56;60.34;103009.53;5027865;27;98942;-69
2023/02/04 06:43:42;;;;;;;10.00;4.95;;;;;;;6.83;59.54;103007.31;5024889;27;99108;-70
2023/02/04 06:46:08;;;;;;;18.50;7.07;;;;;;;6.67;59.66;103010.56;5029932;27;97923;-69
2023/02/04 06:48:34;;;;;;;38.30;10.25;;;;;;;6.67;59.74;103011.47;5026709;27;98848;-69
2023/02/04 06:51:01;;;;;;;15.68;6.00;;;;;;;6.73;59.64;103016.81;5034224;27;99112;-69
2023/02/04 06:53:27;;;;;;;14.05;5.50;;;;;;;6.73;59.97;103008.03;5024751;28;98801;-70
2023/02/04 06:55:54;;;;;;;5.72;2.25;;;;;;;6.67;60.14;103002.69;5027195;27;96844;-69
2023/02/04 06:58:21;;;;;;;12.93;4.45;;;;;;;6.80;59.62;103007.28;5029028;28;98946;-70
2023/02/04 07:00:48;;;;;;;8.63;2.25;;;;;;;6.79;59.73;103005.50;5027250;27;98934;-70
2023/02/04 07:03:15;;;;;;;9.35;2.22;;;;;;;6.75;60.21;103007.22;5023226;27;100493;-69
2023/02/04 07:05:41;;;;;;;11.80;4.25;;;;;;;6.61;60.06;103014.00;5030393;27;97669;-69
2023/02/04 07:08:07;;;;;;;15.05;5.38;;;;;;;6.77;60.00;103013.38;5024494;27;97023;-69
2023/02/04 07:10:34;;;;;;;7.00;2.88;;;;;;;6.71;60.12;103018.53;5029466;27;98146;-70
2023/02/04 07:13:00;;;;;;;9.68;4.28;;;;;;;6.98;59.41;103012.81;5028456;27;98878;-69
2023/02/04 07:15:28;;;;;;;6.25;1.90;;;;;;;6.97;59.02;103016.31;5022721;28;97528;-69
2023/02/04 07:17:55;;;;;;;4.07;1.75;;;;;;;6.81;59.63;103022.19;5024850;28;97888;-70
2023/02/04 07:20:21;;;;;;;6.63;1.73;;;;;;;6.86;59.80;103019.63;5022817;27;100532;-71
2023/02/04 07:22:47;;;;;;;4.68;1.75;;;;;;;6.92;59.60;103039.00;5020406;27;98829;-70
2023/02/04 07:25:16;;;;;;;6.25;1.75;;;;;;;7.08;59.24;103038.41;5027153;28;96975;-71
2023/02/04 07:27:43;;;;;;;6.40;1.58;;;;;;;6.96;59.50;103046.06;5031243;27;97052;-69
2023/02/04 07:30:11;;;;;;;4.63;1.20;;;;;;;7.17;58.86;103048.16;5028072;28;98009;-70
2023/02/04 07:32:39;;;;;;;6.22;2.85;;;;;;;7.22;58.73;103049.09;5019525;28;97767;-70
2023/02/04 07:35:06;;;;;;;7.80;1.52;;;;;;;7.06;59.05;103068.16;5027661;28;97281;-70
2023/02/04 07:37:32;;;;;;;4.25;1.50;;;;;;;6.99;59.14;103064.53;5027231;28;97178;-69
2023/02/04 07:39:59;;;;;;;7.93;2.25;;;;;;;7.08;58.96;103076.97;5032779;27;98388;-69
2023/02/04 07:42:25;;;;;;;5.60;2.15;;;;;;;7.14;58.80;103077.94;5023798;27;98885;-69
2023/02/04 07:44:52;;;;;;;5.90;2.08;;;;;;;7.34;58.18;103080.88;5028498;28;97738;-70
2023/02/04 07:47:18;;;;;;;4.70;1.52;;;;;;;7.43;57.83;103088.88;5015970;28;97115;-70
2023/02/04 07:49:46;;;;;;;5.03;1.70;;;;;;;7.39;58.19;103094.97;5028518;28;99009;-70
2023/02/04 07:52:12;;;;;;;4.45;1.30;;;;;;;7.31;57.94;103095.69;5028766;28;98187;-69
2023/02/04 07:54:38;;;;;;;3.65;1.05;;;;;;;7.43;57.99;103096.75;5023060;28;98045;-69
2023/02/04 07:57:05;;;;;;;7.47;1.75;;;;;;;7.32;58.17;103100.09;5020928;27;96883;-69
2023/02/04 07:59:31;;;;;;;7.05;1.05;;;;;;;7.17;58.38;103113.88;5023332;28;98923;-69
2023/02/04 08:01:58;;;;;;;3.33;1.42;;;;;;;6.95;59.02;103122.31;5027882;28;99096;-70
2023/02/04 08:04:24;;;;;;;5.75;1.30;;;;;;;7.18;59.02;103123.56;5018093;28;97920;-69
2023/02/04 08:06:52;;;;;;;4.57;1.42;;;;;;;7.34;58.33;103122.94;5022599;28;96821;-69
2023/02/04 08:09:18;;;;;;;4.15;1.83;;;;;;;7.48;58.17;103126.66;5025985;27;98857;-73
2023/02/04 08:11:45;;;;;;;6.55;1.90;;;;;;;7.51;57.94;103137.22;5017639;27;99385;-70
2023/02/04 08:14:12;;;;;;;8.50;1.30;;;;;;;7.50;57.39;103135.47;5026107;28;97223;-71
2023/02/04 08:16:39;;;;;;;4.20;1.80;;;;;;;7.80;57.42;103142.03;5027966;28;96958;-70
2023/02/04 08:19:06;;;;;;;7.18;1.85;;;;;;;7.86;56.91;103134.22;5028141;28;99260;-70
2023/02/04 08:21:32;;;;;;;4.57;1.50;;;;;;;7.70;57.22;103145.38;5026965;28;100670;-71
2023/02/04 08:24:00;;;;;;;6.38;2.45;;;;;;;7.61;57.36;103159.31;5025991;27;96784;-70
2023/02/04 08:26:26;;;;;;;9.07;2.10;;;;;;;7.81;57.07;103155.19;5023335;27;99335;-72
2023/02/04 08:28:53;;;;;;;8.52;2.45;;;;;;;7.70;57.18;103169.06;5027015;27;100772;-72
2023/02/04 08:31:19;;;;;;;5.97;1.63;;;;;;;7.83;56.60;103158.75;5030304;28;98028;-71
2023/02/04 08:33:45;;;;;;;7.78;2.50;;;;;;;7.87;56.84;103172.84;5023577;28;96787;-72
2023/02/04 08:36:14;;;;;;;7.05;1.17;;;;;;;8.05;56.28;103169.56;5027458;27;97631;-69
2023/02/04 08:38:43;;;;;;;4.00;1.38;;;;;;;8.06;56.20;103166.97;5026444;27;101812;-70
2023/02/04 08:41:11;;;;;;;6.40;1.63;;;;;;;7.97;56.00;103169.47;5030192;27;98029;-70
2023/02/04 08:43:37;;;;;;;2.67;1.50;;;;;;;7.63;56.48;103176.00;5028597;28;97139;-69
2023/02/04 08:46:05;;;;;;;3.17;1.38;;;;;;;7.74;56.66;103176.19;5021737;28;97511;-70
2023/02/04 08:48:31;;;;;;;5.85;1.75;;;;;;;8.05;55.80;103178.38;5026935;28;98964;-69
2023/02/04 08:50:58;;;;;;;4.18;1.20;;;;;;;8.21;55.44;103174.16;5020871;28;98194;-69
2023/02/04 08:53:25;;;;;;;7.40;1.15;;;;;;;8.39;54.76;103177.97;5024108;27;97176;-68
2023/02/04 08:55:51;;;;;;;9.20;1.40;;;;;;;8.30;55.05;103184.81;5021729;28;98043;-68
2023/02/04 08:58:19;;;;;;;3.45;1.00;;;;;;;8.38;54.57;103186.75;5028035;27;98990;-70
2023/02/04 09:00:45;;;;;;;7.93;1.45;;;;;;;8.49;54.68;103192.13;5024679;28;99285;-70
2023/02/04 09:03:12;;;;;;;10.38;2.05;;;;;;;8.08;54.42;103186.28;5026332;28;97984;-69
2023/02/04 09:05:38;;;;;;;6.82;1.65;;;;;;;8.39;54.71;103188.50;5021996;27;96908;-70
2023/02/04 09:08:05;;;;;;;5.93;1.25;;;;;;;8.39;54.27;103191.16;5026894;28;98845;-72
2023/02/04 09:10:31;;;;;;;6.03;1.70;;;;;;;8.54;53.57;103194.81;5029647;27;98842;-71
2023/02/04 09:12:58;;;;;;;5.63;1.85;;;;;;;8.53;52.95;103195.69;5021808;28;98766;-71
2023/02/04 09:15:26;;;;;;;8.50;1.73;;;;;;;8.30;53.94;103205.91;5017948;28;97442;-73
2023/02/04 09:18:00;;;;;;;11.23;2.30;;;;;;;8.46;53.88;103207.91;5021651;28;98783;-69
2023/02/04 09:20:27;;;;;;;8.45;1.60;;;;;;;8.69;53.07;103209.06;5021772;27;99237;-70
2023/02/04 09:22:54;;;;;;;6.72;1.60;;;;;;;8.50;53.50;103214.09;5020591;27;97469;-69
2023/02/04 09:25:20;;;;;;;9.00;1.92;;;;;;;8.62;53.31;103211.59;5030708;28;96820;-69
2023/02/04 09:27:47;;;;;;;5.60;1.50;;;;;;;8.78;52.80;103219.72;5025539;27;98902;-70
2023/02/04 09:30:14;;;;;;;4.28;1.30;;;;;;;8.89;52.41;103227.72;5021712;27;102169;-70
2023/02/04 09:32:41;;;;;;;5.10;1.42;;;;;;;8.90;52.32;103237.41;5033237;27;98790;-71
2023/02/04 09:35:08;;;;;;;7.13;1.30;;;;;;;9.23;51.77;103241.25;5018672;28;98671;-70
2023/02/04 09:37:34;;;;;;;5.68;1.10;;;;;;;9.46;51.18;103239.69;5024976;27;100980;-71
2023/02/04 09:40:03;;;;;;;3.67;1.48;;;;;;;9.35;50.82;103244.88;5022763;27;98861;-72
2023/02/04 09:42:30;;;;;;;6.07;1.52;;;;;;;9.50;51.74;103245.03;5028603;27;97727;-70
2023/02/04 09:44:57;;;;;;;4.05;0.90;;;;;;;9.58;50.95;103253.03;5023837;27;98764;-70
2023/02/04 09:47:25;;;;;;;4.22;0.98;;;;;;;9.58;50.38;103245.09;5019369;27;98998;-70
2023/02/04 09:49:53;;;;;;;5.53;1.02;;;;;;;9.46;50.18;103263.44;5019167;27;98787;-70
2023/02/04 09:52:23;;;;;;;1.50;0.60;;;;;;;9.66;50.34;103258.34;5028214;27;96812;-70
2023/02/04 09:54:49;;;;;;;4.95;1.20;;;;;;;9.70;49.21;103254.88;5024561;27;98119;-69
2023/02/04 09:57:21;;;;;;;4.05;0.80;;;;;;;9.89;49.33;103257.66;5026061;27;101194;-70
2023/02/04 09:59:49;;;;;;;3.38;1.25;;;;;;;9.84;48.51;103262.03;5027270;27;99131;-70
2023/02/04 10:02:22;;;;;;;3.45;0.90;;;;;;;9.91;48.10;103262.97;5021337;28;96742;-69
2023/02/04 10:04:49;;;;;;;4.97;0.80;;;;;;;9.79;47.80;103260.19;5023320;27;97428;-72
2023/02/04 10:07:23;;;;;;;4.75;1.50;;;;;;;9.69;48.07;103267.19;5028037;27;99079;-71
2023/02/04 10:09:51;;;;;;;2.25;1.25;;;;;;;9.80;47.89;103268.16;5025075;27;99538;-71
2023/02/04 10:12:18;;;;;;;3.30;1.00;;;;;;;9.74;48.00;103265.47;5033014;28;96829;-72
2023/02/04 10:14:44;;;;;;;4.65;1.40;;;;;;;9.79;46.91;103263.72;5027907;27;97140;-71
2023/02/04 10:17:21;;;;;;;4.75;1.00;;;;;;;9.85;46.95;103266.41;5025915;27;98834;-72
2023/02/04 10:19:48;;;;;;;2.92;0.75;;;;;;;9.96;46.74;103270.03;5026678;27;99192;-72
2023/02/04 10:22:19;;;;;;;2.63;0.80;;;;;;;9.85;46.63;103263.78;5028412;27;97118;-70
2023/02/04 10:24:45;;;;;;;9.45;1.02;;;;;;;9.87;46.38;103259.41;5026437;27;97152;-72
2023/02/04 10:27:15;;;;;;;4.35;0.90;;;;;;;9.60;46.53;103262.72;5028458;27;99384;-70
2023/02/04 10:29:42;;;;;;;3.33;0.70;;;;;;;9.57;46.83;103269.72;5022943;27;101803;-73
2023/02/04 10:32:28;;;;;;;4.85;0.93;;;;;;;9.68;47.04;103273.34;5022734;27;98739;-73
2023/02/04 10:34:59;;;;;;;5.13;0.82;;;;;;;9.86;46.54;103270.81;5026290;27;98954;-70
2023/02/04 10:37:28;;;;;;;6.97;1.20;;;;;;;10.00;46.11;103270.94;5028337;28;99427;-72
2023/02/04 10:39:55;;;;;;;3.30;0.80;;;;;;;10.02;46.16;103278.88;5016732;27;98835;-70
2023/02/04 10:42:23;;;;;;;2.67;0.80;;;;;;;10.23;45.33;103279.94;5022186;27;98748;-72
2023/02/04 10:44:50;;;;;;;5.65;0.68;;;;;;;10.36;45.03;103273.84;5026848;27;97595;-70
2023/02/04 10:47:18;;;;;;;4.35;0.80;;;;;;;10.56;43.83;103283.63;5026316;27;100882;-71
2023/02/04 10:49:53;;;;;;;1.88;0.85;;;;;;;10.59;42.88;103281.88;5025998;28;101594;-71
2023/02/04 10:52:22;;;;;;;5.30;2.08;;;;;;;10.28;43.68;103279.97;5013281;27;97483;-70
2023/02/04 10:54:49;;;;;;;3.75;1.00;;;;;;;10.27;43.44;103280.81;5022567;27;99327;-70
2023/02/04 10:57:19;;;;;;;1.35;0.75;;;;;;;10.39;42.55;103276.50;5026714;27;99041;-69
2023/02/04 10:59:47;;;;;;;2.85;0.50;;;;;;;10.35;41.99;103284.41;5023888;27;98915;-69
2023/02/04 11:02:32;;;;;;;2.25;0.60;;;;;;;10.67;42.19;103280.16;5017855;27;99037;-69
2023/02/04 11:04:59;;;;;;;2.95;0.77;;;;;;;10.88;41.95;103283.75;5018653;27;97203;-70
2023/02/04 11:07:26;;;;;;;1.92;0.55;;;;;;;10.91;41.15;103287.28;5024826;27;101634;-70
2023/02/04 11:09:54;;;;;;;1.70;0.60;;;;;;;10.85;41.64;103286.38;5024878;27;98809;-70
2023/02/04 11:12:22;;;;;;;3.20;0.40;;;;;;;10.94;41.47;103282.03;5027391;27;98516;-69
2023/02/04 11:14:55;;;;;;;3.05;0.40;;;;;;;10.81;41.10;103298.72;5027629;27;97431;-69
2023/02/04 11:17:22;;;;;;;3.00;0.60;;;;;;;10.83;41.42;103290.81;5028261;28;98928;-72
2023/02/04 11:19:49;;;;;;;3.47;1.10;;;;;;;10.53;42.09;103291.53;5020755;28;99550;-69
2023/02/04 11:22:24;;;;;;;4.70;0.88;;;;;;;10.39;41.97;103288.81;5024645;28;96856;-71
2023/02/04 11:24:51;;;;;;;1.73;0.60;;;;;;;10.42;42.23;103294.13;5027209;27;97275;-70
2023/02/04 11:27:25;;;;;;;2.30;0.50;;;;;;;10.15;42.29;103292.19;5027367;27;99415;-69
2023/02/04 11:29:52;;;;;;;3.83;0.40;;;;;;;10.00;42.41;103306.16;5026118;27;99117;-70
2023/02/04 11:32:34;;;;;;;3.53;0.50;;;;;;;9.88;42.51;103303.44;5027242;27;98649;-71